sensor_id;sensor_type;location;lat;lon;timestamp;P1;P2;P0
55518;PMS5003;41724;51.176;-0.708;2022-11-15T00:01:41;2;2;
55518;PMS5003;41724;51.176;-0.708;2022-11-15T00:04:08;1;1;
55518;PMS5003;41724;51.176;-0.708;2022-11-15T00:06:36;2;2;
55518;PMS5003;41724;51.176;-0.708;2022-11-15T00:09:04;3;2;
55518;PMS5003;41724;51.176;-0.708;2022-11-15T00:11:31;3;2;
55518;PMS5003;41724;51.176;-0.708;2022-11-15T00:13:58;3;3;
55518;PMS5003;41724;51.176;-0.708;2022-11-15T00:16:25;6;4;
55518;PMS5003;41724;51.176;-0.708;2022-11-15T00:18:52;6;6;
55518;PMS5003;41724;51.176;-0.708;2022-11-15T00:21:19;4;4;
55518;PMS5003;41724;51.176;-0.708;2022-11-15T00:23:46;5;4;
55518;PMS5003;41724;51.176;-0.708;2022-11-15T00:26:14;5;5;
55518;PMS5003;41724;51.176;-0.708;2022-11-15T00:28:41;6;6;
55518;PMS5003;41724;51.176;-0.708;2022-11-15T00:31:09;8;8;
55518;PMS5003;41724;51.176;-0.708;2022-11-15T00:33:38;4;4;
55518;PMS5003;41724;51.176;-0.708;2022-11-15T00:36:06;7;6;
55518;PMS5003;41724;51.176;-0.708;2022-11-15T00:38:35;9;8;
55518;PMS5003;41724;51.176;-0.708;2022-11-15T00:41:05;7;7;
55518;PMS5003;41724;51.176;-0.708;2022-11-15T00:43:33;6;4;
55518;PMS5003;41724;51.176;-0.708;2022-11-15T00:46:00;4;4;
55518;PMS5003;41724;51.176;-0.708;2022-11-15T00:48:27;3;3;
55518;PMS5003;41724;51.176;-0.708;2022-11-15T00:50:55;2;2;
55518;PMS5003;41724;51.176;-0.708;2022-11-15T00:53:22;4;2;
55518;PMS5003;41724;51.176;-0.708;2022-11-15T00:55:50;3;2;
55518;PMS5003;41724;51.176;-0.708;2022-11-15T00:58:17;1;1;
55518;PMS5003;41724;51.176;-0.708;2022-11-15T01:00:44;2;2;
55518;PMS5003;41724;51.176;-0.708;2022-11-15T01:03:11;2;2;
55518;PMS5003;41724;51.176;-0.708;2022-11-15T01:05:38;3;2;
55518;PMS5003;41724;51.176;-0.708;2022-11-15T01:08:05;2;2;
55518;PMS5003;41724;51.176;-0.708;2022-11-15T01:10:32;4;1;
55518;PMS5003;41724;51.176;-0.708;2022-11-15T01:12:59;1;1;
55518;PMS5003;41724;51.176;-0.708;2022-11-15T01:15:26;2;2;
55518;PMS5003;41724;51.176;-0.708;2022-11-15T01:17:53;4;2;
55518;PMS5003;41724;51.176;-0.708;2022-11-15T01:20:20;2;2;
55518;PMS5003;41724;51.176;-0.708;2022-11-15T01:22:47;2;2;
55518;PMS5003;41724;51.176;-0.708;2022-11-15T01:25:15;1;1;
55518;PMS5003;41724;51.176;-0.708;2022-11-15T01:27:41;3;2;
55518;PMS5003;41724;51.176;-0.708;2022-11-15T01:30:09;2;2;
55518;PMS5003;41724;51.176;-0.708;2022-11-15T01:32:36;2;1;
55518;PMS5003;41724;51.176;-0.708;2022-11-15T01:35:03;3;2;
55518;PMS5003;41724;51.176;-0.708;2022-11-15T01:37:31;1;1;
55518;PMS5003;41724;51.176;-0.708;2022-11-15T01:39:58;2;1;
55518;PMS5003;41724;51.176;-0.708;2022-11-15T01:42:25;3;1;
55518;PMS5003;41724;51.176;-0.708;2022-11-15T01:44:53;3;3;
55518;PMS5003;41724;51.176;-0.708;2022-11-15T01:47:21;2;2;
55518;PMS5003;41724;51.176;-0.708;2022-11-15T01:49:52;5;3;
55518;PMS5003;41724;51.176;-0.708;2022-11-15T01:52:26;3;3;
55518;PMS5003;41724;51.176;-0.708;2022-11-15T01:54:59;2;2;
55518;PMS5003;41724;51.176;-0.708;2022-11-15T01:57:32;4;3;
55518;PMS5003;41724;51.176;-0.708;2022-11-15T02:00:01;4;3;
55518;PMS5003;41724;51.176;-0.708;2022-11-15T02:02:30;3;3;
55518;PMS5003;41724;51.176;-0.708;2022-11-15T02:04:57;5;3;
55518;PMS5003;41724;51.176;-0.708;2022-11-15T02:07:24;1;1;
55518;PMS5003;41724;51.176;-0.708;2022-11-15T02:09:52;4;2;
55518;PMS5003;41724;51.176;-0.708;2022-11-15T02:12:20;2;1;
55518;PMS5003;41724;51.176;-0.708;2022-11-15T02:14:49;3;2;
55518;PMS5003;41724;51.176;-0.708;2022-11-15T02:17:25;4;3;
55518;PMS5003;41724;51.176;-0.708;2022-11-15T02:20:39;2;2;
55518;PMS5003;41724;51.176;-0.708;2022-11-15T02:23:19;4;3;
55518;PMS5003;41724;51.176;-0.708;2022-11-15T02:27:08;3;2;
55518;PMS5003;41724;51.176;-0.708;2022-11-15T02:29:59;2;2;
55518;PMS5003;41724;51.176;-0.708;2022-11-15T02:32:34;4;2;
55518;PMS5003;41724;51.176;-0.708;2022-11-15T02:35:11;2;2;
55518;PMS5003;41724;51.176;-0.708;2022-11-15T02:37:47;3;1;
55518;PMS5003;41724;51.176;-0.708;2022-11-15T02:40:22;2;1;
55518;PMS5003;41724;51.176;-0.708;2022-11-15T02:43:03;4;2;
55518;PMS5003;41724;51.176;-0.708;2022-11-15T02:45:35;4;3;
55518;PMS5003;41724;51.176;-0.708;2022-11-15T02:48:08;2;1;
55518;PMS5003;41724;51.176;-0.708;2022-11-15T02:50:37;4;3;
55518;PMS5003;41724;51.176;-0.708;2022-11-15T02:53:04;1;1;
55518;PMS5003;41724;51.176;-0.708;2022-11-15T02:55:32;1;1;
55518;PMS5003;41724;51.176;-0.708;2022-11-15T02:58:19;2;2;
55518;PMS5003;41724;51.176;-0.708;2022-11-15T03:01:09;4;3;
55518;PMS5003;41724;51.176;-0.708;2022-11-15T03:03:48;5;3;
55518;PMS5003;41724;51.176;-0.708;2022-11-15T03:06:31;3;1;
55518;PMS5003;41724;51.176;-0.708;2022-11-15T03:09:09;2;2;
55518;PMS5003;41724;51.176;-0.708;2022-11-15T03:11:43;2;2;
55518;PMS5003;41724;51.176;-0.708;2022-11-15T03:14:18;5;4;
55518;PMS5003;41724;51.176;-0.708;2022-11-15T03:16:55;1;1;
55518;PMS5003;41724;51.176;-0.708;2022-11-15T03:19:32;3;2;
55518;PMS5003;41724;51.176;-0.708;2022-11-15T03:22:04;4;3;
55518;PMS5003;41724;51.176;-0.708;2022-11-15T03:24:38;4;3;
55518;PMS5003;41724;51.176;-0.708;2022-11-15T03:27:08;3;2;
55518;PMS5003;41724;51.176;-0.708;2022-11-15T03:29:39;1;1;
55518;PMS5003;41724;51.176;-0.708;2022-11-15T03:32:12;0;0;
55518;PMS5003;41724;51.176;-0.708;2022-11-15T03:34:43;3;1;
55518;PMS5003;41724;51.176;-0.708;2022-11-15T03:37:14;3;2;
55518;PMS5003;41724;51.176;-0.708;2022-11-15T03:39:42;7;4;
55518;PMS5003;41724;51.176;-0.708;2022-11-15T03:42:14;3;2;
55518;PMS5003;41724;51.176;-0.708;2022-11-15T03:44:51;2;2;
55518;PMS5003;41724;51.176;-0.708;2022-11-15T03:47:26;3;1;
55518;PMS5003;41724;51.176;-0.708;2022-11-15T03:49:58;4;3;
55518;PMS5003;41724;51.176;-0.708;2022-11-15T03:52:30;4;3;
55518;PMS5003;41724;51.176;-0.708;2022-11-15T03:54:59;3;2;
55518;PMS5003;41724;51.176;-0.708;2022-11-15T03:57:29;1;1;
55518;PMS5003;41724;51.176;-0.708;2022-11-15T03:59:55;2;2;
55518;PMS5003;41724;51.176;-0.708;2022-11-15T04:02:23;6;3;
55518;PMS5003;41724;51.176;-0.708;2022-11-15T04:04:50;3;3;
55518;PMS5003;41724;51.176;-0.708;2022-11-15T04:07:16;4;4;
55518;PMS5003;41724;51.176;-0.708;2022-11-15T04:09:43;4;2;
55518;PMS5003;41724;51.176;-0.708;2022-11-15T04:12:10;3;3;
55518;PMS5003;41724;51.176;-0.708;2022-11-15T04:14:37;3;2;
55518;PMS5003;41724;51.176;-0.708;2022-11-15T04:17:04;7;6;
55518;PMS5003;41724;51.176;-0.708;2022-11-15T04:19:31;7;4;
55518;PMS5003;41724;51.176;-0.708;2022-11-15T04:21:58;5;4;
55518;PMS5003;41724;51.176;-0.708;2022-11-15T04:24:24;2;2;
55518;PMS5003;41724;51.176;-0.708;2022-11-15T04:26:51;4;2;
55518;PMS5003;41724;51.176;-0.708;2022-11-15T04:29:18;1;0;
55518;PMS5003;41724;51.176;-0.708;2022-11-15T04:31:45;6;4;
55518;PMS5003;41724;51.176;-0.708;2022-11-15T04:34:12;4;2;
55518;PMS5003;41724;51.176;-0.708;2022-11-15T04:36:39;5;4;
55518;PMS5003;41724;51.176;-0.708;2022-11-15T04:39:06;0;0;
55518;PMS5003;41724;51.176;-0.708;2022-11-15T04:41:33;2;2;
55518;PMS5003;41724;51.176;-0.708;2022-11-15T04:44:00;3;2;
55518;PMS5003;41724;51.176;-0.708;2022-11-15T04:46:27;4;3;
55518;PMS5003;41724;51.176;-0.708;2022-11-15T04:48:54;0;0;
55518;PMS5003;41724;51.176;-0.708;2022-11-15T04:51:21;2;1;
55518;PMS5003;41724;51.176;-0.708;2022-11-15T04:53:48;2;2;
55518;PMS5003;41724;51.176;-0.708;2022-11-15T04:56:15;3;3;
55518;PMS5003;41724;51.176;-0.708;2022-11-15T04:58:42;3;3;
55518;PMS5003;41724;51.176;-0.708;2022-11-15T05:01:09;2;2;
55518;PMS5003;41724;51.176;-0.708;2022-11-15T05:03:37;3;2;
55518;PMS5003;41724;51.176;-0.708;2022-11-15T05:06:05;3;3;
55518;PMS5003;41724;51.176;-0.708;2022-11-15T05:08:32;4;4;
55518;PMS5003;41724;51.176;-0.708;2022-11-15T05:10:59;2;2;
55518;PMS5003;41724;51.176;-0.708;2022-11-15T05:13:26;5;3;
55518;PMS5003;41724;51.176;-0.708;2022-11-15T05:15:53;4;3;
55518;PMS5003;41724;51.176;-0.708;2022-11-15T05:18:20;2;2;
55518;PMS5003;41724;51.176;-0.708;2022-11-15T05:20:47;4;4;
55518;PMS5003;41724;51.176;-0.708;2022-11-15T05:23:14;4;3;
55518;PMS5003;41724;51.176;-0.708;2022-11-15T05:25:42;1;1;
55518;PMS5003;41724;51.176;-0.708;2022-11-15T05:28:09;6;4;
55518;PMS5003;41724;51.176;-0.708;2022-11-15T05:30:36;5;1;
55518;PMS5003;41724;51.176;-0.708;2022-11-15T05:33:03;2;2;
55518;PMS5003;41724;51.176;-0.708;2022-11-15T05:35:30;2;1;
55518;PMS5003;41724;51.176;-0.708;2022-11-15T05:38:04;3;2;
55518;PMS5003;41724;51.176;-0.708;2022-11-15T05:40:31;3;2;
55518;PMS5003;41724;51.176;-0.708;2022-11-15T05:43:00;4;2;
55518;PMS5003;41724;51.176;-0.708;2022-11-15T05:45:31;5;3;
55518;PMS5003;41724;51.176;-0.708;2022-11-15T05:48:00;6;4;
55518;PMS5003;41724;51.176;-0.708;2022-11-15T05:50:32;4;4;
55518;PMS5003;41724;51.176;-0.708;2022-11-15T05:53:00;3;2;
55518;PMS5003;41724;51.176;-0.708;2022-11-15T05:55:28;1;1;
55518;PMS5003;41724;51.176;-0.708;2022-11-15T05:57:55;2;2;
55518;PMS5003;41724;51.176;-0.708;2022-11-15T06:00:22;1;0;
55518;PMS5003;41724;51.176;-0.708;2022-11-15T06:02:49;0;0;
55518;PMS5003;41724;51.176;-0.708;2022-11-15T06:05:16;3;2;
55518;PMS5003;41724;51.176;-0.708;2022-11-15T06:07:43;1;0;
55518;PMS5003;41724;51.176;-0.708;2022-11-15T06:10:10;1;1;
55518;PMS5003;41724;51.176;-0.708;2022-11-15T06:12:37;1;1;
55518;PMS5003;41724;51.176;-0.708;2022-11-15T06:15:04;2;1;
55518;PMS5003;41724;51.176;-0.708;2022-11-15T06:17:32;1;1;
55518;PMS5003;41724;51.176;-0.708;2022-11-15T06:19:59;1;1;
55518;PMS5003;41724;51.176;-0.708;2022-11-15T06:22:26;2;1;
55518;PMS5003;41724;51.176;-0.708;2022-11-15T06:24:53;0;0;
55518;PMS5003;41724;51.176;-0.708;2022-11-15T06:27:20;3;3;
55518;PMS5003;41724;51.176;-0.708;2022-11-15T06:29:47;2;1;
55518;PMS5003;41724;51.176;-0.708;2022-11-15T06:32:14;1;1;
55518;PMS5003;41724;51.176;-0.708;2022-11-15T06:34:41;2;1;
55518;PMS5003;41724;51.176;-0.708;2022-11-15T06:37:08;2;1;
55518;PMS5003;41724;51.176;-0.708;2022-11-15T06:39:35;1;1;
55518;PMS5003;41724;51.176;-0.708;2022-11-15T06:42:02;0;0;
55518;PMS5003;41724;51.176;-0.708;2022-11-15T06:44:29;1;1;
55518;PMS5003;41724;51.176;-0.708;2022-11-15T06:46:56;1;0;
55518;PMS5003;41724;51.176;-0.708;2022-11-15T06:49:23;1;0;
55518;PMS5003;41724;51.176;-0.708;2022-11-15T06:51:50;0;0;
55518;PMS5003;41724;51.176;-0.708;2022-11-15T06:54:17;0;0;
55518;PMS5003;41724;51.176;-0.708;2022-11-15T06:56:45;0;0;
55518;PMS5003;41724;51.176;-0.708;2022-11-15T06:59:11;0;0;
55518;PMS5003;41724;51.176;-0.708;2022-11-15T07:01:39;2;1;
55518;PMS5003;41724;51.176;-0.708;2022-11-15T07:04:06;1;1;
55518;PMS5003;41724;51.176;-0.708;2022-11-15T07:06:33;0;0;
55518;PMS5003;41724;51.176;-0.708;2022-11-15T07:09:01;0;0;
55518;PMS5003;41724;51.176;-0.708;2022-11-15T07:11:28;0;0;
55518;PMS5003;41724;51.176;-0.708;2022-11-15T07:13:55;0;0;
55518;PMS5003;41724;51.176;-0.708;2022-11-15T07:16:22;0;0;
55518;PMS5003;41724;51.176;-0.708;2022-11-15T07:18:49;0;0;
55518;PMS5003;41724;51.176;-0.708;2022-11-15T07:21:16;1;1;
55518;PMS5003;41724;51.176;-0.708;2022-11-15T07:23:44;0;0;
55518;PMS5003;41724;51.176;-0.708;2022-11-15T07:26:10;1;0;
55518;PMS5003;41724;51.176;-0.708;2022-11-15T07:28:38;1;0;
55518;PMS5003;41724;51.176;-0.708;2022-11-15T07:31:05;0;0;
55518;PMS5003;41724;51.176;-0.708;2022-11-15T07:33:34;1;0;
55518;PMS5003;41724;51.176;-0.708;2022-11-15T07:36:02;0;0;
55518;PMS5003;41724;51.176;-0.708;2022-11-15T07:38:32;1;1;
55518;PMS5003;41724;51.176;-0.708;2022-11-15T07:41:00;0;0;
55518;PMS5003;41724;51.176;-0.708;2022-11-15T07:43:28;1;1;
55518;PMS5003;41724;51.176;-0.708;2022-11-15T07:45:56;1;0;
55518;PMS5003;41724;51.176;-0.708;2022-11-15T07:48:23;0;0;
55518;PMS5003;41724;51.176;-0.708;2022-11-15T07:50:50;0;0;
55518;PMS5003;41724;51.176;-0.708;2022-11-15T07:53:17;0;0;
55518;PMS5003;41724;51.176;-0.708;2022-11-15T07:55:44;0;0;
55518;PMS5003;41724;51.176;-0.708;2022-11-15T07:58:12;0;0;
55518;PMS5003;41724;51.176;-0.708;2022-11-15T08:00:39;0;0;
55518;PMS5003;41724;51.176;-0.708;2022-11-15T08:03:07;0;0;
55518;PMS5003;41724;51.176;-0.708;2022-11-15T08:05:35;2;1;
55518;PMS5003;41724;51.176;-0.708;2022-11-15T08:08:04;0;0;
55518;PMS5003;41724;51.176;-0.708;2022-11-15T08:10:32;0;0;
55518;PMS5003;41724;51.176;-0.708;2022-11-15T08:13:00;1;0;
55518;PMS5003;41724;51.176;-0.708;2022-11-15T08:15:29;0;0;
55518;PMS5003;41724;51.176;-0.708;2022-11-15T08:17:57;0;0;
55518;PMS5003;41724;51.176;-0.708;2022-11-15T08:20:25;0;0;
55518;PMS5003;41724;51.176;-0.708;2022-11-15T08:22:53;0;0;
55518;PMS5003;41724;51.176;-0.708;2022-11-15T08:25:20;0;0;
55518;PMS5003;41724;51.176;-0.708;2022-11-15T08:27:47;0;0;
55518;PMS5003;41724;51.176;-0.708;2022-11-15T08:30:17;0;0;
55518;PMS5003;41724;51.176;-0.708;2022-11-15T08:32:44;0;0;
55518;PMS5003;41724;51.176;-0.708;2022-11-15T08:35:11;0;0;
55518;PMS5003;41724;51.176;-0.708;2022-11-15T08:37:38;0;0;
55518;PMS5003;41724;51.176;-0.708;2022-11-15T08:40:05;0;0;
55518;PMS5003;41724;51.176;-0.708;2022-11-15T08:42:33;0;0;
55518;PMS5003;41724;51.176;-0.708;2022-11-15T08:45:00;0;0;
55518;PMS5003;41724;51.176;-0.708;2022-11-15T08:47:27;1;1;
55518;PMS5003;41724;51.176;-0.708;2022-11-15T08:49:54;0;0;
55518;PMS5003;41724;51.176;-0.708;2022-11-15T08:52:21;0;0;
55518;PMS5003;41724;51.176;-0.708;2022-11-15T08:54:48;1;1;
55518;PMS5003;41724;51.176;-0.708;2022-11-15T08:57:15;2;0;
55518;PMS5003;41724;51.176;-0.708;2022-11-15T08:59:42;0;0;
55518;PMS5003;41724;51.176;-0.708;2022-11-15T09:02:10;2;2;
55518;PMS5003;41724;51.176;-0.708;2022-11-15T09:04:39;1;1;
55518;PMS5003;41724;51.176;-0.708;2022-11-15T09:07:06;0;0;
55518;PMS5003;41724;51.176;-0.708;2022-11-15T09:09:33;1;0;
55518;PMS5003;41724;51.176;-0.708;2022-11-15T09:12:00;0;0;
55518;PMS5003;41724;51.176;-0.708;2022-11-15T09:14:28;1;0;
55518;PMS5003;41724;51.176;-0.708;2022-11-15T09:16:55;0;0;
55518;PMS5003;41724;51.176;-0.708;2022-11-15T09:19:23;0;0;
55518;PMS5003;41724;51.176;-0.708;2022-11-15T09:21:50;1;1;
55518;PMS5003;41724;51.176;-0.708;2022-11-15T09:24:17;1;0;
55518;PMS5003;41724;51.176;-0.708;2022-11-15T09:26:44;1;0;
55518;PMS5003;41724;51.176;-0.708;2022-11-15T09:29:13;0;0;
55518;PMS5003;41724;51.176;-0.708;2022-11-15T09:31:40;0;0;
55518;PMS5003;41724;51.176;-0.708;2022-11-15T09:34:07;0;0;
55518;PMS5003;41724;51.176;-0.708;2022-11-15T09:36:34;0;0;
55518;PMS5003;41724;51.176;-0.708;2022-11-15T09:39:02;0;0;
55518;PMS5003;41724;51.176;-0.708;2022-11-15T09:41:38;0;0;
55518;PMS5003;41724;51.176;-0.708;2022-11-15T09:44:25;2;1;
55518;PMS5003;41724;51.176;-0.708;2022-11-15T09:47:08;1;1;
55518;PMS5003;41724;51.176;-0.708;2022-11-15T09:49:58;0;0;
55518;PMS5003;41724;51.176;-0.708;2022-11-15T09:52:27;0;0;
55518;PMS5003;41724;51.176;-0.708;2022-11-15T09:54:54;0;0;
55518;PMS5003;41724;51.176;-0.708;2022-11-15T09:57:29;1;0;
55518;PMS5003;41724;51.176;-0.708;2022-11-15T10:00:06;0;0;
55518;PMS5003;41724;51.176;-0.708;2022-11-15T10:02:52;1;0;
55518;PMS5003;41724;51.176;-0.708;2022-11-15T10:05:31;0;0;
55518;PMS5003;41724;51.176;-0.708;2022-11-15T10:08:09;0;0;
55518;PMS5003;41724;51.176;-0.708;2022-11-15T10:10:47;0;0;
55518;PMS5003;41724;51.176;-0.708;2022-11-15T10:13:16;0;0;
55518;PMS5003;41724;51.176;-0.708;2022-11-15T10:15:51;0;0;
55518;PMS5003;41724;51.176;-0.708;2022-11-15T10:18:20;1;1;
55518;PMS5003;41724;51.176;-0.708;2022-11-15T10:20:57;1;1;
55518;PMS5003;41724;51.176;-0.708;2022-11-15T10:23:26;1;0;
55518;PMS5003;41724;51.176;-0.708;2022-11-15T10:25:55;0;0;
55518;PMS5003;41724;51.176;-0.708;2022-11-15T10:28:25;1;0;
55518;PMS5003;41724;51.176;-0.708;2022-11-15T10:30:55;1;1;
55518;PMS5003;41724;51.176;-0.708;2022-11-15T10:33:26;0;0;
55518;PMS5003;41724;51.176;-0.708;2022-11-15T10:36:29;0;0;
55518;PMS5003;41724;51.176;-0.708;2022-11-15T10:38:56;0;0;
55518;PMS5003;41724;51.176;-0.708;2022-11-15T10:41:32;1;0;
55518;PMS5003;41724;51.176;-0.708;2022-11-15T10:44:09;1;1;
55518;PMS5003;41724;51.176;-0.708;2022-11-15T10:46:46;0;0;
55518;PMS5003;41724;51.176;-0.708;2022-11-15T10:49:15;1;0;
55518;PMS5003;41724;51.176;-0.708;2022-11-15T10:51:44;0;0;
55518;PMS5003;41724;51.176;-0.708;2022-11-15T10:54:14;0;0;
55518;PMS5003;41724;51.176;-0.708;2022-11-15T10:56:50;1;0;
55518;PMS5003;41724;51.176;-0.708;2022-11-15T10:59:23;1;1;
55518;PMS5003;41724;51.176;-0.708;2022-11-15T11:01:53;0;0;
55518;PMS5003;41724;51.176;-0.708;2022-11-15T11:04:21;1;0;
55518;PMS5003;41724;51.176;-0.708;2022-11-15T11:06:49;1;1;
55518;PMS5003;41724;51.176;-0.708;2022-11-15T11:09:22;0;0;
55518;PMS5003;41724;51.176;-0.708;2022-11-15T11:11:55;0;0;
55518;PMS5003;41724;51.176;-0.708;2022-11-15T11:14:23;0;0;
55518;PMS5003;41724;51.176;-0.708;2022-11-15T11:16:52;1;0;
55518;PMS5003;41724;51.176;-0.708;2022-11-15T11:19:37;0;0;
55518;PMS5003;41724;51.176;-0.708;2022-11-15T11:22:16;0;0;
55518;PMS5003;41724;51.176;-0.708;2022-11-15T11:24:49;1;1;
55518;PMS5003;41724;51.176;-0.708;2022-11-15T11:27:30;1;0;
55518;PMS5003;41724;51.176;-0.708;2022-11-15T11:30:08;0;0;
55518;PMS5003;41724;51.176;-0.708;2022-11-15T11:32:46;0;0;
55518;PMS5003;41724;51.176;-0.708;2022-11-15T11:35:23;5;4;
55518;PMS5003;41724;51.176;-0.708;2022-11-15T11:37:58;2;2;
55518;PMS5003;41724;51.176;-0.708;2022-11-15T11:40:34;1;1;
55518;PMS5003;41724;51.176;-0.708;2022-11-15T11:43:09;2;2;
55518;PMS5003;41724;51.176;-0.708;2022-11-15T11:45:50;2;2;
55518;PMS5003;41724;51.176;-0.708;2022-11-15T11:48:41;2;1;
55518;PMS5003;41724;51.176;-0.708;2022-11-15T11:51:12;4;2;
55518;PMS5003;41724;51.176;-0.708;2022-11-15T11:53:46;3;2;
55518;PMS5003;41724;51.176;-0.708;2022-11-15T11:56:23;2;1;
55518;PMS5003;41724;51.176;-0.708;2022-11-15T11:58:54;2;1;
55518;PMS5003;41724;51.176;-0.708;2022-11-15T12:01:29;1;1;
55518;PMS5003;41724;51.176;-0.708;2022-11-15T12:04:03;2;1;
55518;PMS5003;41724;51.176;-0.708;2022-11-15T12:06:38;4;3;
55518;PMS5003;41724;51.176;-0.708;2022-11-15T12:09:13;1;1;
55518;PMS5003;41724;51.176;-0.708;2022-11-15T12:11:47;4;2;
55518;PMS5003;41724;51.176;-0.708;2022-11-15T12:14:24;1;1;
55518;PMS5003;41724;51.176;-0.708;2022-11-15T12:16:55;1;0;
55518;PMS5003;41724;51.176;-0.708;2022-11-15T12:19:24;1;1;
55518;PMS5003;41724;51.176;-0.708;2022-11-15T12:21:54;0;0;
55518;PMS5003;41724;51.176;-0.708;2022-11-15T12:24:28;1;1;
55518;PMS5003;41724;51.176;-0.708;2022-11-15T12:27:01;2;1;
55518;PMS5003;41724;51.176;-0.708;2022-11-15T12:29:36;1;1;
55518;PMS5003;41724;51.176;-0.708;2022-11-15T12:32:11;0;0;
55518;PMS5003;41724;51.176;-0.708;2022-11-15T12:34:48;3;1;
55518;PMS5003;41724;51.176;-0.708;2022-11-15T12:37:32;2;1;
55518;PMS5003;41724;51.176;-0.708;2022-11-15T12:40:19;4;2;
55518;PMS5003;41724;51.176;-0.708;2022-11-15T12:43:54;1;1;
55518;PMS5003;41724;51.176;-0.708;2022-11-15T12:46:22;1;1;
55518;PMS5003;41724;51.176;-0.708;2022-11-15T12:49:43;0;0;
55518;PMS5003;41724;51.176;-0.708;2022-11-15T12:52:11;1;0;
55518;PMS5003;41724;51.176;-0.708;2022-11-15T12:54:56;1;1;
55518;PMS5003;41724;51.176;-0.708;2022-11-15T12:57:29;2;2;
55518;PMS5003;41724;51.176;-0.708;2022-11-15T13:00:05;2;1;
55518;PMS5003;41724;51.176;-0.708;2022-11-15T13:00:44;2;1;
55518;PMS5003;41724;51.176;-0.708;2022-11-15T13:03:28;1;1;
55518;PMS5003;41724;51.176;-0.708;2022-11-15T13:05:59;7;7;
55518;PMS5003;41724;51.176;-0.708;2022-11-15T13:08:41;0;0;
55518;PMS5003;41724;51.176;-0.708;2022-11-15T13:12:48;4;4;
55518;PMS5003;41724;51.176;-0.708;2022-11-15T13:16:22;2;2;
55518;PMS5003;41724;51.176;-0.708;2022-11-15T13:18:53;0;0;
55518;PMS5003;41724;51.176;-0.708;2022-11-15T13:21:21;1;1;
55518;PMS5003;41724;51.176;-0.708;2022-11-15T13:23:51;2;2;
55518;PMS5003;41724;51.176;-0.708;2022-11-15T13:26:20;1;1;
55518;PMS5003;41724;51.176;-0.708;2022-11-15T13:28:49;3;2;
55518;PMS5003;41724;51.176;-0.708;2022-11-15T13:31:19;3;2;
55518;PMS5003;41724;51.176;-0.708;2022-11-15T13:33:50;1;1;
55518;PMS5003;41724;51.176;-0.708;2022-11-15T13:36:20;2;2;
55518;PMS5003;41724;51.176;-0.708;2022-11-15T13:39:04;1;1;
55518;PMS5003;41724;51.176;-0.708;2022-11-15T13:41:44;0;0;
55518;PMS5003;41724;51.176;-0.708;2022-11-15T13:44:18;2;1;
55518;PMS5003;41724;51.176;-0.708;2022-11-15T13:47:00;1;1;
55518;PMS5003;41724;51.176;-0.708;2022-11-15T13:49:29;3;1;
55518;PMS5003;41724;51.176;-0.708;2022-11-15T13:51:57;2;2;
55518;PMS5003;41724;51.176;-0.708;2022-11-15T13:54:28;1;1;
55518;PMS5003;41724;51.176;-0.708;2022-11-15T13:57:01;3;2;
55518;PMS5003;41724;51.176;-0.708;2022-11-15T13:59:32;1;1;
55518;PMS5003;41724;51.176;-0.708;2022-11-15T14:02:02;2;2;
55518;PMS5003;41724;51.176;-0.708;2022-11-15T14:04:39;1;1;
55518;PMS5003;41724;51.176;-0.708;2022-11-15T14:07:16;1;1;
55518;PMS5003;41724;51.176;-0.708;2022-11-15T14:09:44;5;1;
55518;PMS5003;41724;51.176;-0.708;2022-11-15T14:12:29;0;0;
55518;PMS5003;41724;51.176;-0.708;2022-11-15T14:14:58;3;2;
55518;PMS5003;41724;51.176;-0.708;2022-11-15T14:17:35;1;1;
55518;PMS5003;41724;51.176;-0.708;2022-11-15T14:20:19;2;1;
55518;PMS5003;41724;51.176;-0.708;2022-11-15T14:22:53;0;0;
55518;PMS5003;41724;51.176;-0.708;2022-11-15T14:25:22;0;0;
55518;PMS5003;41724;51.176;-0.708;2022-11-15T14:28:55;1;0;
55518;PMS5003;41724;51.176;-0.708;2022-11-15T14:31:22;0;0;
55518;PMS5003;41724;51.176;-0.708;2022-11-15T14:33:49;1;1;
55518;PMS5003;41724;51.176;-0.708;2022-11-15T14:36:17;1;0;
55518;PMS5003;41724;51.176;-0.708;2022-11-15T14:38:46;2;2;
55518;PMS5003;41724;51.176;-0.708;2022-11-15T14:41:17;3;3;
55518;PMS5003;41724;51.176;-0.708;2022-11-15T14:43:45;5;4;
55518;PMS5003;41724;51.176;-0.708;2022-11-15T14:46:12;2;2;
55518;PMS5003;41724;51.176;-0.708;2022-11-15T14:48:39;1;0;
55518;PMS5003;41724;51.176;-0.708;2022-11-15T14:51:09;1;0;
55518;PMS5003;41724;51.176;-0.708;2022-11-15T14:53:39;2;0;
55518;PMS5003;41724;51.176;-0.708;2022-11-15T14:56:06;0;0;
55518;PMS5003;41724;51.176;-0.708;2022-11-15T14:58:33;1;1;
55518;PMS5003;41724;51.176;-0.708;2022-11-15T15:01:02;2;2;
55518;PMS5003;41724;51.176;-0.708;2022-11-15T15:03:37;5;3;
55518;PMS5003;41724;51.176;-0.708;2022-11-15T15:06:04;1;1;
55518;PMS5003;41724;51.176;-0.708;2022-11-15T15:08:32;1;1;
55518;PMS5003;41724;51.176;-0.708;2022-11-15T15:10:59;1;1;
55518;PMS5003;41724;51.176;-0.708;2022-11-15T15:13:26;0;0;
55518;PMS5003;41724;51.176;-0.708;2022-11-15T15:15:53;3;2;
55518;PMS5003;41724;51.176;-0.708;2022-11-15T15:18:20;3;1;
55518;PMS5003;41724;51.176;-0.708;2022-11-15T15:20:48;2;1;
55518;PMS5003;41724;51.176;-0.708;2022-11-15T15:23:21;2;1;
55518;PMS5003;41724;51.176;-0.708;2022-11-15T15:25:48;2;1;
55518;PMS5003;41724;51.176;-0.708;2022-11-15T15:28:16;1;1;
55518;PMS5003;41724;51.176;-0.708;2022-11-15T15:30:43;2;2;
55518;PMS5003;41724;51.176;-0.708;2022-11-15T15:33:10;2;2;
55518;PMS5003;41724;51.176;-0.708;2022-11-15T15:35:37;2;1;
55518;PMS5003;41724;51.176;-0.708;2022-11-15T15:38:04;1;0;
55518;PMS5003;41724;51.176;-0.708;2022-11-15T15:40:32;1;1;
55518;PMS5003;41724;51.176;-0.708;2022-11-15T15:42:59;1;1;
55518;PMS5003;41724;51.176;-0.708;2022-11-15T15:45:26;2;2;
55518;PMS5003;41724;51.176;-0.708;2022-11-15T15:47:54;0;0;
55518;PMS5003;41724;51.176;-0.708;2022-11-15T15:50:22;2;0;
55518;PMS5003;41724;51.176;-0.708;2022-11-15T15:52:51;2;2;
55518;PMS5003;41724;51.176;-0.708;2022-11-15T15:55:19;1;1;
55518;PMS5003;41724;51.176;-0.708;2022-11-15T15:57:47;1;1;
55518;PMS5003;41724;51.176;-0.708;2022-11-15T16:00:15;2;2;
55518;PMS5003;41724;51.176;-0.708;2022-11-15T16:02:44;1;1;
55518;PMS5003;41724;51.176;-0.708;2022-11-15T16:05:12;1;1;
55518;PMS5003;41724;51.176;-0.708;2022-11-15T16:07:39;2;1;
55518;PMS5003;41724;51.176;-0.708;2022-11-15T16:10:13;3;2;
55518;PMS5003;41724;51.176;-0.708;2022-11-15T16:12:45;2;2;
55518;PMS5003;41724;51.176;-0.708;2022-11-15T16:15:13;2;1;
55518;PMS5003;41724;51.176;-0.708;2022-11-15T16:17:43;3;3;
55518;PMS5003;41724;51.176;-0.708;2022-11-15T16:20:20;7;7;
55518;PMS5003;41724;51.176;-0.708;2022-11-15T16:22:58;3;3;
55518;PMS5003;41724;51.176;-0.708;2022-11-15T16:25:26;3;2;
55518;PMS5003;41724;51.176;-0.708;2022-11-15T16:27:54;3;2;
55518;PMS5003;41724;51.176;-0.708;2022-11-15T16:30:21;2;2;
55518;PMS5003;41724;51.176;-0.708;2022-11-15T16:32:48;4;3;
55518;PMS5003;41724;51.176;-0.708;2022-11-15T16:35:16;4;3;
55518;PMS5003;41724;51.176;-0.708;2022-11-15T16:37:43;5;3;
55518;PMS5003;41724;51.176;-0.708;2022-11-15T16:40:16;6;5;
55518;PMS5003;41724;51.176;-0.708;2022-11-15T16:42:49;7;7;
55518;PMS5003;41724;51.176;-0.708;2022-11-15T16:45:16;4;4;
55518;PMS5003;41724;51.176;-0.708;2022-11-15T16:47:43;4;3;
55518;PMS5003;41724;51.176;-0.708;2022-11-15T16:50:11;1;1;
55518;PMS5003;41724;51.176;-0.708;2022-11-15T16:52:45;2;1;
55518;PMS5003;41724;51.176;-0.708;2022-11-15T16:55:12;2;2;
55518;PMS5003;41724;51.176;-0.708;2022-11-15T16:57:39;2;2;
55518;PMS5003;41724;51.176;-0.708;2022-11-15T17:00:08;1;1;